Terminal Aerodrome Forecast
Issued by NWS Boston, MA

Home | Current Version | Previous Version | Text Only | Print | Product List | Glossary On
Versions: 1 2 3 4 5 6 7 8 9 10 11 12 13 14 15 16 17 18 19 20 21
000
FTUS41 KBOX 212340
TAFBDL
TAF
KBDL 212340Z 2200/2306 17008KT P6SM SCT150 BKN250
     FM220600 18005KT P6SM VCSH OVC100
     FM220900 18005KT P6SM VCSH OVC025
     FM221000 18004KT P6SM OVC025
     FM221200 18004KT 3SM BR BKN025
     FM221300 VRB03KT P6SM BKN015
     FM221800 20004KT P6SM BKN050
     FM230300 VRB03KT 2SM BR SCT060=

USA.gov is the U.S. government's official web portal to all federal, state and local government web resources and services.